createdAt,value
2022-08-10T00:00:00.291Z,0
2022-08-10T00:01:00.456Z,0
2022-08-10T00:02:00.626Z,0
2022-08-10T00:03:00.723Z,0
2022-08-10T00:04:00.881Z,0
2022-08-10T00:05:01.028Z,0
2022-08-10T00:06:01.205Z,0
2022-08-10T00:07:00.319Z,0
2022-08-10T00:08:00.461Z,0
2022-08-10T00:09:00.625Z,0
2022-08-10T00:10:00.768Z,0
2022-08-10T00:11:00.939Z,0
2022-08-10T00:12:01.104Z,0
2022-08-10T00:13:01.220Z,0
2022-08-10T00:14:00.620Z,0
2022-08-10T00:15:00.520Z,0
2022-08-10T00:16:00.667Z,0
2022-08-10T00:17:00.836Z,0
2022-08-10T00:18:00.973Z,0
2022-08-10T00:19:01.105Z,0
2022-08-10T00:20:03.869Z,0
2022-08-10T00:21:00.401Z,0
2022-08-10T00:22:00.582Z,0
2022-08-10T00:23:00.702Z,0
2022-08-10T00:24:00.857Z,0
2022-08-10T00:25:00.999Z,0
2022-08-10T00:26:01.150Z,0
2022-08-10T00:27:52.230Z,0
2022-08-10T00:28:03.753Z,0
2022-08-10T00:29:00.585Z,0
2022-08-10T00:30:00.731Z,0
2022-08-10T00:31:00.896Z,0
2022-08-10T00:32:01.091Z,0
2022-08-10T00:33:01.191Z,0
2022-08-10T00:34:00.333Z,0
2022-08-10T00:35:00.480Z,0
2022-08-10T00:36:00.626Z,0
2022-08-10T00:37:00.801Z,0
2022-08-10T00:38:00.938Z,0
2022-08-10T00:39:01.067Z,0
2022-08-10T00:40:01.323Z,0
2022-08-10T00:41:00.368Z,0
2022-08-10T00:42:07.033Z,0
2022-08-10T00:43:00.681Z,0
2022-08-10T00:44:00.815Z,0
2022-08-10T00:45:00.954Z,0
2022-08-10T00:46:01.099Z,0
2022-08-10T00:47:01.254Z,0
2022-08-10T00:48:00.419Z,0
2022-08-10T00:49:00.863Z,0
2022-08-10T00:50:00.686Z,0
2022-08-10T00:51:00.804Z,0
2022-08-10T00:52:00.950Z,0
2022-08-10T00:53:01.108Z,0
2022-08-10T00:54:01.232Z,0
2022-08-10T00:55:00.386Z,0
2022-08-10T00:57:14.015Z,0
2022-08-10T00:57:16.970Z,0
2022-08-10T00:58:00.859Z,0
2022-08-10T00:59:00.983Z,0
2022-08-10T01:00:01.132Z,0
2022-08-10T01:01:00.352Z,0
2022-08-10T01:02:09.179Z,0
2022-08-10T01:03:00.669Z,0
2022-08-10T01:04:57.608Z,0
2022-08-10T01:05:02.055Z,0
2022-08-10T01:06:01.063Z,0
2022-08-10T01:07:01.216Z,0
2022-08-10T01:08:00.376Z,0
2022-08-10T01:09:00.520Z,0
2022-08-10T01:10:00.696Z,0
2022-08-10T01:11:00.826Z,0
2022-08-10T01:12:38.895Z,0
2022-08-10T01:13:01.111Z,0
2022-08-10T01:14:00.271Z,0
2022-08-10T01:15:00.446Z,0
2022-08-10T01:16:00.580Z,0
2022-08-10T01:17:00.719Z,0
2022-08-10T01:18:00.879Z,0
2022-08-10T01:19:01.029Z,0
2022-08-10T01:20:01.193Z,0
2022-08-10T01:21:00.342Z,0
2022-08-10T01:22:00.493Z,0
2022-08-10T01:23:00.630Z,0
2022-08-10T01:24:00.768Z,0
2022-08-10T01:25:00.956Z,0
2022-08-10T01:26:11.600Z,0
2022-08-10T01:27:01.229Z,0
2022-08-10T01:28:00.379Z,0
2022-08-10T01:29:00.522Z,0
2022-08-10T01:30:00.698Z,0
2022-08-10T01:31:00.818Z,0
2022-08-10T01:32:00.962Z,0
2022-08-10T01:33:01.128Z,0
2022-08-10T01:34:02.269Z,0
2022-08-10T01:35:00.437Z,0
2022-08-10T01:36:00.550Z,0
2022-08-10T01:37:00.706Z,0
2022-08-10T01:38:00.855Z,0
2022-08-10T01:39:01.001Z,0
2022-08-10T01:40:01.162Z,0
2022-08-10T01:41:00.331Z,0
2022-08-10T01:42:00.450Z,0
2022-08-10T01:43:08.332Z,0
2022-08-10T01:44:03.601Z,0
2022-08-10T01:45:00.898Z,0
2022-08-10T01:46:01.068Z,0
2022-08-10T01:47:01.221Z,0
2022-08-10T01:48:00.338Z,0
2022-08-10T01:49:00.477Z,0
2022-08-10T01:50:00.620Z,0
2022-08-10T01:51:00.797Z,0
2022-08-10T01:52:00.987Z,0
2022-08-10T01:53:01.071Z,0
2022-08-10T01:54:01.232Z,0
2022-08-10T01:55:00.379Z,0
2022-08-10T01:56:00.521Z,0
2022-08-10T01:57:00.691Z,0
2022-08-10T01:58:00.838Z,0
2022-08-10T01:59:00.970Z,0
2022-08-10T02:00:02.760Z,0
2022-08-10T02:01:00.342Z,0
2022-08-10T02:02:00.411Z,0
2022-08-10T02:03:00.595Z,0
2022-08-10T02:04:04.072Z,0
2022-08-10T02:05:00.864Z,0
2022-08-10T02:06:01.005Z,0
2022-08-10T02:07:01.154Z,0
2022-08-10T02:08:00.339Z,0
2022-08-10T02:09:06.287Z,0
2022-08-10T02:10:00.594Z,0
2022-08-10T02:11:00.738Z,0
2022-08-10T02:12:07.519Z,0
2022-08-10T02:13:01.052Z,0
2022-08-10T02:14:01.186Z,0
2022-08-10T02:15:00.345Z,0
2022-08-10T02:16:01.483Z,0
2022-08-10T02:17:00.631Z,0
2022-08-10T02:18:01.829Z,0
2022-08-10T02:19:00.961Z,0
2022-08-10T02:20:01.090Z,0
2022-08-10T02:21:01.244Z,0
2022-08-10T02:22:35.270Z,0
2022-08-10T02:23:00.525Z,0
2022-08-10T02:24:00.706Z,0
2022-08-10T02:25:00.810Z,0
2022-08-10T02:26:00.958Z,0
2022-08-10T02:27:01.103Z,0
2022-08-10T02:29:00.383Z,0
2022-08-10T02:30:00.538Z,0
2022-08-10T02:31:00.670Z,0
2022-08-10T02:32:00.819Z,0
2022-08-10T02:33:00.969Z,0
2022-08-10T02:34:01.113Z,0
2022-08-10T02:35:00.301Z,0
2022-08-10T02:36:00.413Z,0
2022-08-10T02:37:00.571Z,0
2022-08-10T02:38:00.718Z,0
2022-08-10T02:39:01.329Z,0
2022-08-10T02:40:01.031Z,0
2022-08-10T02:42:18.889Z,0
2022-08-10T02:45:12.729Z,0
2022-08-10T02:45:18.085Z,0
2022-08-10T02:45:22.919Z,0
2022-08-10T02:45:24.706Z,0
2022-08-10T02:46:00.929Z,0
2022-08-10T02:47:01.045Z,0
2022-08-10T02:48:01.204Z,0
2022-08-10T02:49:00.351Z,0
2022-08-10T02:50:00.499Z,0
2022-08-10T02:51:00.670Z,0
2022-08-10T02:52:07.258Z,0
2022-08-10T02:53:00.960Z,0
2022-08-10T02:54:01.091Z,0
2022-08-10T02:55:04.689Z,0
2022-08-10T02:56:00.410Z,0
2022-08-10T02:57:00.545Z,0
2022-08-10T02:58:16.650Z,0
2022-08-10T02:59:00.853Z,0
2022-08-10T03:00:00.993Z,0
2022-08-10T03:01:01.220Z,0
2022-08-10T03:02:00.295Z,0
2022-08-10T03:03:00.437Z,0
2022-08-10T03:04:00.586Z,0
2022-08-10T03:05:00.735Z,0
2022-08-10T03:06:00.901Z,0
2022-08-10T03:07:01.025Z,0
2022-08-10T03:08:01.177Z,0
2022-08-10T03:09:00.326Z,0
2022-08-10T03:10:00.486Z,0
2022-08-10T03:11:00.633Z,0
2022-08-10T03:12:35.170Z,0
2022-08-10T03:13:00.917Z,0
2022-08-10T03:14:01.096Z,0
2022-08-10T03:15:01.225Z,0
2022-08-10T03:16:00.359Z,0
2022-08-10T03:17:00.513Z,0
2022-08-10T03:18:00.666Z,0
2022-08-10T03:19:00.825Z,0
2022-08-10T03:20:33.824Z,0
2022-08-10T03:21:01.116Z,0
2022-08-10T03:22:00.283Z,0
2022-08-10T03:23:00.415Z,0
2022-08-10T03:24:00.586Z,0
2022-08-10T03:25:00.712Z,0
2022-08-10T03:26:00.871Z,0
2022-08-10T03:27:01.011Z,0
2022-08-10T03:28:01.158Z,0
2022-08-10T03:29:00.335Z,0
2022-08-10T03:30:28.522Z,0
2022-08-10T03:31:00.612Z,0
2022-08-10T03:32:00.757Z,0
2022-08-10T03:33:00.908Z,0
2022-08-10T03:34:01.089Z,0
2022-08-10T03:35:01.201Z,0
2022-08-10T03:36:42.185Z,0
2022-08-10T03:37:00.503Z,0
2022-08-10T03:38:00.660Z,0
2022-08-10T03:39:00.809Z,0
2022-08-10T03:40:00.957Z,0
2022-08-10T03:41:01.095Z,0
2022-08-10T03:42:01.245Z,0
2022-08-10T03:43:00.396Z,0
2022-08-10T03:44:00.547Z,0
2022-08-10T03:45:00.716Z,0
2022-08-10T03:46:00.838Z,0
2022-08-10T03:47:00.992Z,0
2022-08-10T03:48:01.143Z,0
2022-08-10T03:49:00.921Z,0
2022-08-10T03:50:03.878Z,0
2022-08-10T03:51:00.609Z,0
2022-08-10T03:52:00.762Z,0
2022-08-10T03:53:00.905Z,0
2022-08-10T03:54:04.871Z,0
2022-08-10T03:55:01.216Z,0
2022-08-10T03:56:27.278Z,0
2022-08-10T03:57:00.504Z,0
2022-08-10T03:58:00.660Z,0
2022-08-10T03:59:00.819Z,0
2022-08-10T04:00:00.982Z,0
2022-08-10T04:01:01.157Z,0
2022-08-10T04:02:46.059Z,0
2022-08-10T04:03:00.410Z,0
2022-08-10T04:04:11.793Z,0
2022-08-10T04:05:00.730Z,0
2022-08-10T04:06:00.858Z,0
2022-08-10T04:07:01.019Z,0
2022-08-10T04:08:01.171Z,0
2022-08-10T04:09:00.327Z,0
2022-08-10T04:10:00.498Z,0
2022-08-10T04:11:00.632Z,0
2022-08-10T04:12:00.767Z,0
2022-08-10T04:13:00.924Z,0
2022-08-10T04:14:01.067Z,0
2022-08-10T04:15:01.215Z,0
2022-08-10T04:16:00.369Z,0
2022-08-10T04:17:00.506Z,0
2022-08-10T04:18:05.869Z,0
2022-08-10T04:19:00.783Z,0
2022-08-10T04:20:00.934Z,0
2022-08-10T04:21:01.091Z,0
2022-08-10T04:22:01.237Z,0
2022-08-10T04:23:00.481Z,0
2022-08-10T04:24:00.531Z,0
2022-08-10T04:25:00.700Z,0
2022-08-10T04:26:00.830Z,0
2022-08-10T04:27:00.966Z,0
2022-08-10T04:28:01.113Z,0
2022-08-10T04:29:00.264Z,0
2022-08-10T04:30:00.426Z,0
2022-08-10T04:31:00.570Z,0
2022-08-10T04:32:00.713Z,0
2022-08-10T04:33:00.857Z,0
2022-08-10T04:34:00.998Z,0
2022-08-10T04:35:01.169Z,0
2022-08-10T04:36:00.338Z,0
2022-08-10T04:37:02.553Z,0
2022-08-10T04:38:00.612Z,0
2022-08-10T04:39:00.765Z,0
2022-08-10T04:40:00.918Z,0
2022-08-10T04:41:01.073Z,0
2022-08-10T04:42:01.232Z,0
2022-08-10T04:43:03.348Z,0
2022-08-10T04:44:00.499Z,0
2022-08-10T04:45:00.655Z,0
2022-08-10T04:46:00.810Z,0
2022-08-10T04:47:00.965Z,0
2022-08-10T04:48:03.357Z,0
2022-08-10T04:49:01.865Z,0
2022-08-10T04:50:00.442Z,0
2022-08-10T04:51:00.563Z,0
2022-08-10T04:52:00.708Z,0
2022-08-10T04:53:00.889Z,0
2022-08-10T04:54:04.411Z,0
2022-08-10T04:55:01.166Z,0
2022-08-10T04:56:00.324Z,0
2022-08-10T04:57:00.477Z,0
2022-08-10T04:58:00.635Z,0
2022-08-10T04:59:00.888Z,0
2022-08-10T05:00:00.905Z,0
2022-08-10T05:01:01.105Z,0
2022-08-10T05:02:30.312Z,0
2022-08-10T05:03:00.355Z,0
2022-08-10T05:04:37.714Z,0
2022-08-10T05:05:00.671Z,0
2022-08-10T05:06:01.519Z,0
2022-08-10T05:07:00.975Z,0
2022-08-10T05:08:01.118Z,0
2022-08-10T05:09:00.270Z,0
2022-08-10T05:10:05.343Z,0
2022-08-10T05:11:00.558Z,0
2022-08-10T05:12:00.704Z,0
2022-08-10T05:13:00.848Z,0
2022-08-10T05:14:00.992Z,0
2022-08-10T05:15:01.163Z,0
2022-08-10T05:16:00.293Z,0
2022-08-10T05:17:00.441Z,0
2022-08-10T05:18:08.228Z,0
2022-08-10T05:19:00.732Z,0
2022-08-10T05:20:02.949Z,0
2022-08-10T05:21:01.041Z,0
2022-08-10T05:22:04.467Z,0
2022-08-10T05:23:00.326Z,0
2022-08-10T05:24:00.510Z,0
2022-08-10T05:25:00.672Z,0
2022-08-10T05:26:00.818Z,0
2022-08-10T05:27:09.923Z,0
2022-08-10T05:28:05.817Z,0
2022-08-10T05:29:01.232Z,0
2022-08-10T05:30:02.350Z,0
2022-08-10T05:31:00.540Z,0
2022-08-10T05:32:00.682Z,0
2022-08-10T05:33:03.799Z,0
2022-08-10T05:34:01.009Z,0
2022-08-10T05:35:01.133Z,0
2022-08-10T05:36:00.278Z,0
2022-08-10T05:37:00.456Z,0
2022-08-10T05:38:10.910Z,0
2022-08-10T05:39:00.734Z,0
2022-08-10T05:40:00.947Z,0
2022-08-10T05:41:01.024Z,0
2022-08-10T05:42:01.714Z,0
2022-08-10T05:43:00.343Z,0
2022-08-10T05:44:00.506Z,0
2022-08-10T05:45:00.657Z,0
2022-08-10T05:46:19.743Z,0
2022-08-10T05:47:00.952Z,0
2022-08-10T05:48:58.148Z,0
2022-08-10T05:49:01.861Z,0
2022-08-10T05:50:00.454Z,0
2022-08-10T05:51:00.586Z,0
2022-08-10T05:52:00.737Z,0
2022-08-10T05:53:23.082Z,0
2022-08-10T05:54:06.223Z,0
2022-08-10T05:55:03.032Z,0
2022-08-10T05:56:00.304Z,0
2022-08-10T05:57:00.458Z,0
2022-08-10T05:58:00.607Z,0
2022-08-10T05:59:00.755Z,0
2022-08-10T06:00:34.143Z,0
2022-08-10T06:01:01.160Z,0
2022-08-10T06:02:31.817Z,0
2022-08-10T06:03:00.357Z,0
2022-08-10T06:04:00.512Z,0
2022-08-10T06:05:00.685Z,0
2022-08-10T06:06:00.807Z,0
2022-08-10T06:07:00.970Z,0
2022-08-10T06:08:01.119Z,0
2022-08-10T06:09:00.269Z,0
2022-08-10T06:10:00.591Z,0
2022-08-10T06:12:25.558Z,0
2022-08-10T06:12:25.620Z,0
2022-08-10T06:13:01.465Z,0
2022-08-10T06:14:12.903Z,0
2022-08-10T06:15:05.877Z,0
2022-08-10T06:16:00.346Z,0
2022-08-10T06:17:00.518Z,0
2022-08-10T06:18:02.133Z,0
2022-08-10T06:19:00.802Z,0
2022-08-10T06:20:00.957Z,0
2022-08-10T06:21:01.139Z,0
2022-08-10T06:22:01.712Z,0
2022-08-10T06:23:00.395Z,0
2022-08-10T06:24:00.553Z,0
2022-08-10T06:25:27.290Z,0
2022-08-10T06:26:11.091Z,0
2022-08-10T06:27:01.022Z,0
2022-08-10T06:28:01.140Z,0
2022-08-10T06:29:02.757Z,0
2022-08-10T06:30:00.422Z,0
2022-08-10T06:31:00.573Z,0
2022-08-10T06:32:00.756Z,0.42
2022-08-10T06:33:00.876Z,0.38
2022-08-10T06:34:01.031Z,0
2022-08-10T06:35:01.175Z,1.18
2022-08-10T06:36:00.323Z,1.48
2022-08-10T06:37:00.496Z,1.36
2022-08-10T06:38:00.629Z,0.14
2022-08-10T06:39:16.965Z,0
2022-08-10T06:40:00.991Z,0
2022-08-10T06:41:01.087Z,0
2022-08-10T06:42:15.942Z,0
2022-08-10T06:43:00.387Z,0
2022-08-10T06:44:00.535Z,0.28
2022-08-10T06:45:00.696Z,0.44
2022-08-10T06:46:07.934Z,0
2022-08-10T06:47:00.986Z,0
2022-08-10T06:48:01.143Z,0
2022-08-10T06:49:00.275Z,0
2022-08-10T06:50:01.674Z,0
2022-08-10T06:51:00.570Z,0
2022-08-10T06:52:00.724Z,0
2022-08-10T06:53:00.891Z,0
2022-08-10T06:54:01.018Z,0
2022-08-10T06:55:01.170Z,0
2022-08-10T06:56:00.309Z,0
2022-08-10T06:57:17.317Z,0
2022-08-10T06:58:00.655Z,0
2022-08-10T06:59:00.750Z,0
2022-08-10T07:00:01.048Z,0
2022-08-10T07:01:01.127Z,0
2022-08-10T07:02:01.197Z,0.54
2022-08-10T07:03:00.352Z,0.37
2022-08-10T07:04:00.482Z,1.2
2022-08-10T07:05:00.641Z,0.48
2022-08-10T07:06:00.783Z,0.02
2022-08-10T07:07:00.940Z,0
2022-08-10T07:08:01.094Z,0
2022-08-10T07:09:01.235Z,1.16
2022-08-10T07:10:00.381Z,1.01
2022-08-10T07:11:00.521Z,1.92
2022-08-10T07:12:08.061Z,0.98
2022-08-10T07:13:00.820Z,0.44
2022-08-10T07:14:16.401Z,0.78
2022-08-10T07:15:01.096Z,1.52
2022-08-10T07:16:01.247Z,0.66
2022-08-10T07:17:00.419Z,0
2022-08-10T07:18:00.547Z,0
2022-08-10T07:19:00.695Z,0
2022-08-10T07:20:00.847Z,0
2022-08-10T07:21:01.001Z,0
2022-08-10T07:22:01.161Z,0
2022-08-10T07:23:54.974Z,0.2
2022-08-10T07:24:01.118Z,0.7
2022-08-10T07:25:00.577Z,1.38
2022-08-10T07:26:00.738Z,1.24
2022-08-10T07:27:00.897Z,1.06
2022-08-10T07:28:01.870Z,0.6
2022-08-10T07:29:01.173Z,0.42
2022-08-10T07:30:00.326Z,0.79
2022-08-10T07:31:00.469Z,1.1
2022-08-10T07:32:00.641Z,0.8
2022-08-10T07:33:00.786Z,0.02
2022-08-10T07:34:00.938Z,0
2022-08-10T07:35:01.077Z,0
2022-08-10T07:36:01.263Z,0.22
2022-08-10T07:37:00.398Z,1.26
2022-08-10T07:38:00.517Z,0.06
2022-08-10T07:39:00.669Z,0
2022-08-10T07:40:04.402Z,0
2022-08-10T07:41:01.118Z,0
2022-08-10T07:42:01.130Z,0
2022-08-10T07:43:00.251Z,0
2022-08-10T07:44:00.401Z,0
2022-08-10T07:45:00.556Z,0
2022-08-10T07:46:00.704Z,0
2022-08-10T07:47:00.864Z,0
2022-08-10T07:48:05.237Z,0.72
2022-08-10T07:49:01.145Z,0.86
2022-08-10T07:50:00.298Z,0.1
2022-08-10T07:51:00.454Z,0.56
2022-08-10T07:52:00.592Z,0.54
2022-08-10T07:53:00.755Z,0.54
2022-08-10T07:54:00.902Z,1.52
2022-08-10T07:55:01.049Z,0.72
2022-08-10T07:56:08.009Z,1
2022-08-10T07:57:00.331Z,0.39
2022-08-10T07:58:00.492Z,0
2022-08-10T07:59:00.678Z,0
2022-08-10T08:00:00.821Z,0
2022-08-10T08:01:00.953Z,0
2022-08-10T08:02:01.265Z,0
2022-08-10T08:03:01.248Z,0
2022-08-10T08:04:06.025Z,0.75
2022-08-10T08:05:00.557Z,1.2
2022-08-10T08:06:05.412Z,0.92
2022-08-10T08:07:00.848Z,0.16
2022-08-10T08:08:00.995Z,0
2022-08-10T08:09:01.134Z,0.78
2022-08-10T08:10:01.141Z,0.04
2022-08-10T08:11:00.438Z,0.82
2022-08-10T08:12:00.585Z,1.38
2022-08-10T08:13:00.734Z,0.7
2022-08-10T08:14:00.888Z,0.78
2022-08-10T08:15:01.062Z,1.16
2022-08-10T08:16:19.201Z,0.3
2022-08-10T08:17:00.323Z,0
2022-08-10T08:18:00.878Z,0
2022-08-10T08:19:26.761Z,0.04
2022-08-10T08:20:00.797Z,0.78
2022-08-10T08:21:00.930Z,1.7
2022-08-10T08:24:04.875Z,1.48
2022-08-10T08:24:06.837Z,0.7
2022-08-10T08:24:30.137Z,0.02
2022-08-10T08:25:00.542Z,0.24
2022-08-10T08:26:00.664Z,0.54
2022-08-10T08:27:00.817Z,0.52
2022-08-10T08:28:00.968Z,1.78
2022-08-10T08:29:04.872Z,0.74
2022-08-10T08:30:00.296Z,1.52
2022-08-10T08:31:00.424Z,1.84
2022-08-10T08:32:02.675Z,0.66
2022-08-10T08:33:00.716Z,0.04
2022-08-10T08:34:00.871Z,0.14
2022-08-10T08:35:01.038Z,1.14
2022-08-10T08:36:01.167Z,0.44
2022-08-10T08:37:00.310Z,1.38
2022-08-10T08:38:32.517Z,1.3
2022-08-10T08:39:00.626Z,1.95
2022-08-10T08:40:00.795Z,0.96
2022-08-10T08:41:00.920Z,1.08
2022-08-10T08:42:01.069Z,0.94
2022-08-10T08:43:01.199Z,1.94
2022-08-10T08:44:00.356Z,1.4
2022-08-10T08:45:00.514Z,1.92
2022-08-10T08:46:02.019Z,1.32
2022-08-10T08:47:00.798Z,1.9
2022-08-10T08:48:04.569Z,1.26
2022-08-10T08:49:01.144Z,1.34
2022-08-10T08:50:09.421Z,1.3
2022-08-10T08:51:01.706Z,1.26
2022-08-10T08:52:07.352Z,2.07
2022-08-10T08:53:00.723Z,1.2
2022-08-10T08:54:03.824Z,1.86
2022-08-10T08:55:01.033Z,2.04
2022-08-10T08:56:06.296Z,1.76
2022-08-10T08:57:00.301Z,1.18
2022-08-10T08:58:00.447Z,1.32
2022-08-10T08:59:00.876Z,2.09
2022-08-10T09:00:00.749Z,2.17
2022-08-10T09:01:00.902Z,1.56
2022-08-10T09:02:01.091Z,1.8
2022-08-10T09:03:01.195Z,1.2
2022-08-10T09:04:00.371Z,1.36
2022-08-10T09:05:00.507Z,1.18
2022-08-10T09:06:00.882Z,1.52
2022-08-10T09:07:00.807Z,1.16
2022-08-10T09:08:03.108Z,0.66
2022-08-10T09:09:01.121Z,0.8
2022-08-10T09:10:01.255Z,1.46
2022-08-10T09:11:00.390Z,1.48
2022-08-10T09:12:00.543Z,0.84
2022-08-10T09:13:00.686Z,1.18
2022-08-10T09:14:00.844Z,1.8
2022-08-10T09:15:00.983Z,0.68
2022-08-10T09:16:01.134Z,1.64
2022-08-10T09:17:00.279Z,1.16
2022-08-10T09:18:00.431Z,1.82
2022-08-10T09:19:00.589Z,2.35
2022-08-10T09:20:00.732Z,1.58
2022-08-10T09:21:00.894Z,1.28
2022-08-10T09:22:17.163Z,1.82
2022-08-10T09:23:01.175Z,1.76
2022-08-10T09:24:02.002Z,1.32
2022-08-10T09:25:00.493Z,1.36
2022-08-10T09:26:00.661Z,1.42
2022-08-10T09:27:00.815Z,1.34
2022-08-10T09:28:00.957Z,1.42
2022-08-10T09:29:12.102Z,0.34
2022-08-10T09:30:01.255Z,1.16
2022-08-10T09:31:22.128Z,1.16
2022-08-10T09:36:15.038Z,1.42
2022-08-10T09:36:20.690Z,0.58
2022-08-10T09:36:25.986Z,0.98
2022-08-10T09:36:25.996Z,1.48
2022-08-10T09:36:26.378Z,0.14
2022-08-10T09:37:00.316Z,1.3
2022-08-10T09:38:01.881Z,2.33
2022-08-10T09:39:00.604Z,1.58
2022-08-10T09:40:56.169Z,0.3
2022-08-10T09:41:04.032Z,0.7
2022-08-10T09:42:01.064Z,1.18
2022-08-10T09:43:23.547Z,1.16
2022-08-10T09:44:00.355Z,1.74
2022-08-10T09:45:00.521Z,1.64
2022-08-10T09:46:00.697Z,2.95
2022-08-10T09:47:00.824Z,1.78
2022-08-10T09:48:03.057Z,1.97
2022-08-10T09:49:01.124Z,1.32
2022-08-10T09:50:04.483Z,1.46
2022-08-10T09:52:00.605Z,1.68
2022-08-10T09:53:00.723Z,1.64
2022-08-10T09:54:00.874Z,0.96
2022-08-10T09:55:01.091Z,2.11
2022-08-10T09:56:18.116Z,1.4
2022-08-10T09:57:24.568Z,1.08
2022-08-10T09:58:00.590Z,0.62
2022-08-10T09:59:29.246Z,2.83
2022-08-10T10:00:02.586Z,1.9
2022-08-10T10:01:00.921Z,1.9
2022-08-10T10:02:03.495Z,1.06
2022-08-10T10:03:01.264Z,1.94
2022-08-10T10:04:00.388Z,2.07
2022-08-10T10:05:00.535Z,1.44
2022-08-10T10:06:00.686Z,1.28
2022-08-10T10:07:00.862Z,1.64
2022-08-10T10:08:00.995Z,2.39
2022-08-10T10:09:10.028Z,1.34
2022-08-10T10:10:00.297Z,1.16
2022-08-10T10:11:00.443Z,0.62
2022-08-10T10:12:09.146Z,1.16
2022-08-10T10:13:00.746Z,0.7
2022-08-10T10:14:02.920Z,0.48
2022-08-10T10:15:01.048Z,0.56
2022-08-10T10:16:01.205Z,1.7
2022-08-10T10:17:00.370Z,0.81
2022-08-10T10:18:00.500Z,1.16
2022-08-10T10:19:00.646Z,0.62
2022-08-10T10:20:00.794Z,0.54
2022-08-10T10:21:00.938Z,0
2022-08-10T10:22:01.127Z,0.86
2022-08-10T10:23:01.242Z,1.26
2022-08-10T10:24:22.335Z,1.34
2022-08-10T10:25:00.547Z,1.84
2022-08-10T10:26:04.922Z,1.74
2022-08-10T10:27:00.856Z,1.52
2022-08-10T10:28:01.003Z,1.14
2022-08-10T10:29:44.686Z,1.08
2022-08-10T10:30:00.297Z,0.83
2022-08-10T10:31:00.427Z,1.88
2022-08-10T10:32:00.590Z,0.6
2022-08-10T10:33:00.735Z,0.6
2022-08-10T10:34:00.859Z,1.4
2022-08-10T10:35:01.003Z,1.08
2022-08-10T10:36:01.160Z,1.66
2022-08-10T10:37:00.303Z,0.59
2022-08-10T10:38:03.202Z,0.68
2022-08-10T10:39:00.625Z,0.14
2022-08-10T10:40:00.794Z,2.11
2022-08-10T10:41:00.897Z,2.77
2022-08-10T10:42:04.291Z,1.42
2022-08-10T10:43:01.189Z,1.04
2022-08-10T10:44:00.373Z,0.28
2022-08-10T10:45:00.488Z,1.78
2022-08-10T10:46:00.638Z,2.21
2022-08-10T10:47:00.786Z,1.46
2022-08-10T10:48:00.923Z,1.02
2022-08-10T10:49:01.102Z,1.72
2022-08-10T10:50:01.231Z,1.92
2022-08-10T10:51:00.376Z,1.3
2022-08-10T10:52:02.179Z,2.19
2022-08-10T10:53:00.695Z,2.47
2022-08-10T10:54:00.852Z,1.08
2022-08-10T10:55:00.984Z,0.44
2022-08-10T10:56:14.338Z,1.76
2022-08-10T10:57:01.264Z,1.4
2022-08-10T10:58:01.159Z,1.16
2022-08-10T10:59:00.600Z,0.84
2022-08-10T11:00:00.703Z,0.18
2022-08-10T11:01:00.888Z,0.02
2022-08-10T11:02:00.991Z,1.94
2022-08-10T11:03:01.133Z,1.16
2022-08-10T11:04:00.301Z,1.1
2022-08-10T11:05:00.432Z,1.2
2022-08-10T11:06:00.599Z,1
2022-08-10T11:07:00.727Z,0.78
2022-08-10T11:08:00.872Z,2
2022-08-10T11:09:01.029Z,1.44
2022-08-10T11:10:09.278Z,0.4
2022-08-10T11:11:00.336Z,1.77
2022-08-10T11:12:02.894Z,0.94
2022-08-10T11:13:06.894Z,0.66
2022-08-10T11:14:26.842Z,1.4
2022-08-10T11:15:00.926Z,2.53
2022-08-10T11:16:01.099Z,1.14
2022-08-10T11:17:01.247Z,1.2
2022-08-10T11:18:00.393Z,1.16
2022-08-10T11:19:00.532Z,1.8
2022-08-10T11:20:03.400Z,2.77
2022-08-10T11:21:00.847Z,1.72
2022-08-10T11:22:00.983Z,1.64
2022-08-10T11:23:01.163Z,1.34
2022-08-10T11:24:47.308Z,1.7
2022-08-10T11:25:00.440Z,2.31
2022-08-10T11:26:00.590Z,1.62
2022-08-10T11:27:00.743Z,2.04
2022-08-10T11:28:00.901Z,2.15
2022-08-10T11:29:01.084Z,1.91
2022-08-10T11:30:01.200Z,1.62
2022-08-10T11:31:00.341Z,2.25
2022-08-10T11:32:00.503Z,1.72
2022-08-10T11:33:00.655Z,1.88
2022-08-10T11:34:47.505Z,1.1
2022-08-10T11:35:11.079Z,1.34
2022-08-10T11:36:01.147Z,1.26
2022-08-10T11:37:00.318Z,2.13
2022-08-10T11:38:30.390Z,2.67
2022-08-10T11:39:13.997Z,2.77
2022-08-10T11:40:00.834Z,2.09
2022-08-10T11:42:05.258Z,2.15
2022-08-10T11:42:07.691Z,2.03
2022-08-10T11:43:01.208Z,2.59
2022-08-10T11:44:00.350Z,2.13
2022-08-10T11:45:00.535Z,1.3
2022-08-10T11:46:07.729Z,2.73
2022-08-10T11:47:00.809Z,2.53
2022-08-10T11:48:00.967Z,1.26
2022-08-10T11:49:04.010Z,1.38
2022-08-10T11:50:00.402Z,0.79
2022-08-10T11:51:00.419Z,1.4
2022-08-10T11:52:00.575Z,1.74
2022-08-10T11:53:00.721Z,1.34
2022-08-10T11:54:00.875Z,2.09
2022-08-10T11:55:01.029Z,1.58
2022-08-10T11:56:01.172Z,0.4
2022-08-10T11:57:02.619Z,1.14
2022-08-10T11:58:00.470Z,0.8
2022-08-10T11:59:00.616Z,0.36
2022-08-10T12:00:00.781Z,1.62
2022-08-10T12:01:00.900Z,1.28
2022-08-10T12:02:01.123Z,1.5
2022-08-10T12:03:01.270Z,1.66
2022-08-10T12:04:00.358Z,0.65
2022-08-10T12:05:00.523Z,1.32
2022-08-10T12:06:00.655Z,1.44
2022-08-10T12:07:00.801Z,1.02
2022-08-10T12:08:54.539Z,2.11
2022-08-10T12:10:08.687Z,0.92
2022-08-10T12:10:10.024Z,1.4
2022-08-10T12:11:00.438Z,0.63
2022-08-10T12:12:00.560Z,1.48
2022-08-10T12:13:00.712Z,1.2
2022-08-10T12:14:20.310Z,2.11
2022-08-10T12:15:01.022Z,2.17
2022-08-10T12:16:05.306Z,0.76
2022-08-10T12:17:00.319Z,0.41
2022-08-10T12:18:00.464Z,0.52
2022-08-10T12:19:00.608Z,2.37
2022-08-10T12:20:03.476Z,2.17
2022-08-10T12:21:00.938Z,0.52
2022-08-10T12:22:05.845Z,0.64
2022-08-10T12:23:01.320Z,1.26
2022-08-10T12:24:02.669Z,0.3
2022-08-10T12:25:00.522Z,0.08
2022-08-10T12:26:00.702Z,0.2
2022-08-10T12:27:00.835Z,1.64
2022-08-10T12:28:00.979Z,2.27
2022-08-10T12:29:01.120Z,0.82
2022-08-10T12:30:00.271Z,0.93
2022-08-10T12:31:00.437Z,0.78
2022-08-10T12:32:00.586Z,0.06
2022-08-10T12:33:00.733Z,0.28
2022-08-10T12:34:02.317Z,1.08
2022-08-10T12:35:01.034Z,0.22
2022-08-10T12:36:17.817Z,0.5
2022-08-10T12:37:00.358Z,0.93
2022-08-10T12:38:00.480Z,1.66
2022-08-10T12:39:00.621Z,3.25
2022-08-10T12:40:31.275Z,1.88
2022-08-10T12:41:00.921Z,2.33
2022-08-10T12:42:01.086Z,1.66
2022-08-10T12:43:13.237Z,1.58
2022-08-10T12:44:07.841Z,2.09
2022-08-10T12:45:00.520Z,1.9
2022-08-10T12:46:05.891Z,1.64
2022-08-10T12:47:00.850Z,1.56
2022-08-10T12:48:00.952Z,1.44
2022-08-10T12:49:01.101Z,1.58
2022-08-10T12:50:31.287Z,1.86
2022-08-10T12:51:00.403Z,2.13
2022-08-10T12:52:00.561Z,1.4
2022-08-10T12:53:06.454Z,0.86
2022-08-10T12:54:00.845Z,1.08
2022-08-10T12:55:00.989Z,0.84
2022-08-10T12:56:01.151Z,0.88
2022-08-10T12:57:00.308Z,1.24
2022-08-10T12:58:00.432Z,0.58
2022-08-10T12:59:01.346Z,0.44
2022-08-10T13:00:00.734Z,0.82
2022-08-10T13:01:15.515Z,0.02
2022-08-10T13:02:10.642Z,0
2022-08-10T13:03:01.249Z,0.54
2022-08-10T13:04:21.886Z,0.65
2022-08-10T13:05:00.472Z,0.08
2022-08-10T13:06:02.300Z,0.84
2022-08-10T13:07:00.792Z,0.82
2022-08-10T13:08:24.861Z,0.54
2022-08-10T13:09:01.111Z,0.76
2022-08-10T13:10:01.218Z,0.64
2022-08-10T13:11:00.374Z,1.48
2022-08-10T13:12:38.748Z,1.28
2022-08-10T13:13:00.656Z,1.02
2022-08-10T13:14:00.823Z,1
2022-08-10T13:15:00.961Z,1.22
2022-08-10T13:16:01.103Z,1.02
2022-08-10T13:17:01.258Z,1.86
2022-08-10T13:18:00.400Z,1.48
2022-08-10T13:19:00.561Z,1.74
2022-08-10T13:20:08.117Z,1.12
2022-08-10T13:21:00.830Z,1.02
2022-08-10T13:22:00.977Z,0.82
2022-08-10T13:23:01.131Z,0.32
2022-08-10T13:24:04.042Z,1.36
2022-08-10T13:25:00.444Z,2.08
2022-08-10T13:26:00.575Z,0.98
2022-08-10T13:27:25.554Z,1.14
2022-08-10T13:28:34.908Z,2.63
2022-08-10T13:29:01.048Z,0.98
2022-08-10T13:30:03.897Z,0.52
2022-08-10T13:31:00.304Z,0.75
2022-08-10T13:32:09.610Z,2.05
2022-08-10T13:33:00.609Z,1.96
2022-08-10T13:34:40.301Z,1.06
2022-08-10T13:35:00.929Z,0.78
2022-08-10T13:36:01.050Z,2.41
2022-08-10T13:37:01.212Z,3.21
2022-08-10T13:38:00.363Z,1.5
2022-08-10T13:39:00.525Z,0.24
2022-08-10T13:40:01.115Z,0.02
2022-08-10T13:41:00.815Z,0.32
2022-08-10T13:42:00.964Z,0
2022-08-10T13:43:01.115Z,0
2022-08-10T13:44:00.258Z,0.22
2022-08-10T13:45:00.443Z,1.1
2022-08-10T13:46:00.557Z,0.98
2022-08-10T13:47:00.702Z,1
2022-08-10T13:48:00.865Z,0.68
2022-08-10T13:49:01.012Z,0.36
2022-08-10T13:50:01.185Z,0.02
2022-08-10T13:51:00.303Z,0.32
2022-08-10T13:52:00.462Z,0.94
2022-08-10T13:53:01.582Z,1.2
2022-08-10T13:54:00.757Z,1.42
2022-08-10T13:55:00.922Z,1.08
2022-08-10T13:56:01.101Z,0.76
2022-08-10T13:57:01.804Z,0.72
2022-08-10T13:58:00.375Z,1.32
2022-08-10T13:59:00.521Z,0.4
2022-08-10T14:00:34.405Z,0.5
2022-08-10T14:01:00.990Z,0.1
2022-08-10T14:02:00.990Z,0.42
2022-08-10T14:03:01.150Z,1.28
2022-08-10T14:04:00.298Z,1.16
2022-08-10T14:05:00.451Z,1.82
2022-08-10T14:06:00.621Z,1.62
2022-08-10T14:07:00.749Z,0.38